sensor_id;sensor_type;location;lat;lon;timestamp;P1;durP1;ratioP1;P2;durP2;ratioP2
53261;SDS011;39658;51.090;-1.786;2023-04-30T00:01:24;41.90;;;16.58;;
53261;SDS011;39658;51.090;-1.786;2023-04-30T00:03:51;39.28;;;17.10;;
53261;SDS011;39658;51.090;-1.786;2023-04-30T00:06:18;41.38;;;17.63;;
53261;SDS011;39658;51.090;-1.786;2023-04-30T00:08:44;37.63;;;15.18;;
53261;SDS011;39658;51.090;-1.786;2023-04-30T00:11:13;43.83;;;17.08;;
53261;SDS011;39658;51.090;-1.786;2023-04-30T00:13:39;41.22;;;17.17;;
53261;SDS011;39658;51.090;-1.786;2023-04-30T00:16:07;47.67;;;17.15;;
53261;SDS011;39658;51.090;-1.786;2023-04-30T00:18:34;41.53;;;16.23;;
53261;SDS011;39658;51.090;-1.786;2023-04-30T00:21:01;39.30;;;16.17;;
53261;SDS011;39658;51.090;-1.786;2023-04-30T00:23:28;37.85;;;15.40;;
53261;SDS011;39658;51.090;-1.786;2023-04-30T00:25:55;43.50;;;16.25;;
53261;SDS011;39658;51.090;-1.786;2023-04-30T00:28:23;39.70;;;15.68;;
53261;SDS011;39658;51.090;-1.786;2023-04-30T00:30:50;37.95;;;16.88;;
53261;SDS011;39658;51.090;-1.786;2023-04-30T00:33:17;40.30;;;15.98;;
53261;SDS011;39658;51.090;-1.786;2023-04-30T00:35:43;38.10;;;15.60;;
53261;SDS011;39658;51.090;-1.786;2023-04-30T00:38:11;35.75;;;16.38;;
53261;SDS011;39658;51.090;-1.786;2023-04-30T00:40:37;38.45;;;14.93;;
53261;SDS011;39658;51.090;-1.786;2023-04-30T00:43:06;42.28;;;15.48;;
53261;SDS011;39658;51.090;-1.786;2023-04-30T00:45:34;39.33;;;15.25;;
53261;SDS011;39658;51.090;-1.786;2023-04-30T00:48:01;42.30;;;15.60;;
53261;SDS011;39658;51.090;-1.786;2023-04-30T00:50:28;38.97;;;16.10;;
53261;SDS011;39658;51.090;-1.786;2023-04-30T00:52:55;38.97;;;14.75;;
53261;SDS011;39658;51.090;-1.786;2023-04-30T00:55:23;44.67;;;17.15;;
53261;SDS011;39658;51.090;-1.786;2023-04-30T00:57:50;40.60;;;17.70;;
53261;SDS011;39658;51.090;-1.786;2023-04-30T01:00:18;39.95;;;16.10;;
53261;SDS011;39658;51.090;-1.786;2023-04-30T01:02:46;40.72;;;17.50;;
53261;SDS011;39658;51.090;-1.786;2023-04-30T01:05:14;38.72;;;14.25;;
53261;SDS011;39658;51.090;-1.786;2023-04-30T01:07:41;37.83;;;16.45;;
53261;SDS011;39658;51.090;-1.786;2023-04-30T01:10:10;51.33;;;17.80;;
53261;SDS011;39658;51.090;-1.786;2023-04-30T01:12:38;50.55;;;16.60;;
53261;SDS011;39658;51.090;-1.786;2023-04-30T01:15:12;40.40;;;17.65;;
53261;SDS011;39658;51.090;-1.786;2023-04-30T01:17:45;47.30;;;18.08;;
53261;SDS011;39658;51.090;-1.786;2023-04-30T01:20:19;46.60;;;16.23;;
53261;SDS011;39658;51.090;-1.786;2023-04-30T01:22:49;44.67;;;17.33;;
53261;SDS011;39658;51.090;-1.786;2023-04-30T01:25:27;46.17;;;18.33;;
53261;SDS011;39658;51.090;-1.786;2023-04-30T01:28:09;45.70;;;17.48;;
53261;SDS011;39658;51.090;-1.786;2023-04-30T01:30:39;43.13;;;17.17;;
53261;SDS011;39658;51.090;-1.786;2023-04-30T01:33:08;41.78;;;18.25;;
53261;SDS011;39658;51.090;-1.786;2023-04-30T01:35:42;50.10;;;17.33;;
53261;SDS011;39658;51.090;-1.786;2023-04-30T01:38:29;50.83;;;18.17;;
53261;SDS011;39658;51.090;-1.786;2023-04-30T01:41:07;44.85;;;17.88;;
53261;SDS011;39658;51.090;-1.786;2023-04-30T01:43:39;50.22;;;18.85;;
53261;SDS011;39658;51.090;-1.786;2023-04-30T01:46:17;44.90;;;17.98;;
53261;SDS011;39658;51.090;-1.786;2023-04-30T01:48:52;50.97;;;20.63;;
53261;SDS011;39658;51.090;-1.786;2023-04-30T01:51:27;52.75;;;20.55;;
53261;SDS011;39658;51.090;-1.786;2023-04-30T01:53:59;52.55;;;18.15;;
53261;SDS011;39658;51.090;-1.786;2023-04-30T01:56:32;61.85;;;22.35;;
53261;SDS011;39658;51.090;-1.786;2023-04-30T01:59:06;56.00;;;22.65;;
53261;SDS011;39658;51.090;-1.786;2023-04-30T02:01:34;59.40;;;22.65;;
53261;SDS011;39658;51.090;-1.786;2023-04-30T02:04:02;54.25;;;22.55;;
53261;SDS011;39658;51.090;-1.786;2023-04-30T02:06:28;56.03;;;23.70;;
53261;SDS011;39658;51.090;-1.786;2023-04-30T02:08:55;60.22;;;22.00;;
53261;SDS011;39658;51.090;-1.786;2023-04-30T02:11:27;54.70;;;21.35;;
53261;SDS011;39658;51.090;-1.786;2023-04-30T02:13:54;59.42;;;22.77;;
53261;SDS011;39658;51.090;-1.786;2023-04-30T02:16:22;59.95;;;23.20;;
53261;SDS011;39658;51.090;-1.786;2023-04-30T02:18:49;58.30;;;22.90;;
53261;SDS011;39658;51.090;-1.786;2023-04-30T02:21:16;51.85;;;21.35;;
53261;SDS011;39658;51.090;-1.786;2023-04-30T02:23:42;63.17;;;21.58;;
53261;SDS011;39658;51.090;-1.786;2023-04-30T02:26:09;58.70;;;22.83;;
53261;SDS011;39658;51.090;-1.786;2023-04-30T02:28:36;55.05;;;20.92;;
53261;SDS011;39658;51.090;-1.786;2023-04-30T02:31:03;61.47;;;23.13;;
53261;SDS011;39658;51.090;-1.786;2023-04-30T02:33:31;58.20;;;22.45;;
53261;SDS011;39658;51.090;-1.786;2023-04-30T02:35:58;59.35;;;21.77;;
53261;SDS011;39658;51.090;-1.786;2023-04-30T02:38:25;58.72;;;19.67;;
53261;SDS011;39658;51.090;-1.786;2023-04-30T02:40:52;60.85;;;22.45;;
53261;SDS011;39658;51.090;-1.786;2023-04-30T02:43:19;56.05;;;22.25;;
53261;SDS011;39658;51.090;-1.786;2023-04-30T02:45:46;58.78;;;21.33;;
53261;SDS011;39658;51.090;-1.786;2023-04-30T02:48:13;60.45;;;22.33;;
53261;SDS011;39658;51.090;-1.786;2023-04-30T02:50:42;62.75;;;22.40;;
53261;SDS011;39658;51.090;-1.786;2023-04-30T02:53:09;64.93;;;24.05;;
53261;SDS011;39658;51.090;-1.786;2023-04-30T02:55:36;55.50;;;23.10;;
53261;SDS011;39658;51.090;-1.786;2023-04-30T02:58:02;64.03;;;23.77;;
53261;SDS011;39658;51.090;-1.786;2023-04-30T03:00:29;63.00;;;22.27;;
53261;SDS011;39658;51.090;-1.786;2023-04-30T03:02:56;56.60;;;21.65;;
53261;SDS011;39658;51.090;-1.786;2023-04-30T03:05:23;60.22;;;22.73;;
53261;SDS011;39658;51.090;-1.786;2023-04-30T03:07:51;58.33;;;23.00;;
53261;SDS011;39658;51.090;-1.786;2023-04-30T03:10:18;54.92;;;21.83;;
53261;SDS011;39658;51.090;-1.786;2023-04-30T03:12:44;67.70;;;24.58;;
53261;SDS011;39658;51.090;-1.786;2023-04-30T03:15:11;59.95;;;22.88;;
53261;SDS011;39658;51.090;-1.786;2023-04-30T03:17:38;58.20;;;22.60;;
53261;SDS011;39658;51.090;-1.786;2023-04-30T03:20:05;64.53;;;23.45;;
53261;SDS011;39658;51.090;-1.786;2023-04-30T03:22:33;53.33;;;21.30;;
53261;SDS011;39658;51.090;-1.786;2023-04-30T03:25:01;55.13;;;22.38;;
53261;SDS011;39658;51.090;-1.786;2023-04-30T03:27:27;51.38;;;18.58;;
53261;SDS011;39658;51.090;-1.786;2023-04-30T03:29:54;51.95;;;19.42;;
53261;SDS011;39658;51.090;-1.786;2023-04-30T03:32:21;49.97;;;19.25;;
53261;SDS011;39658;51.090;-1.786;2023-04-30T03:34:48;55.42;;;20.92;;
53261;SDS011;39658;51.090;-1.786;2023-04-30T03:37:15;52.30;;;18.45;;
53261;SDS011;39658;51.090;-1.786;2023-04-30T03:39:42;58.30;;;21.40;;
53261;SDS011;39658;51.090;-1.786;2023-04-30T03:42:10;56.53;;;20.77;;
53261;SDS011;39658;51.090;-1.786;2023-04-30T03:44:37;61.05;;;21.48;;
53261;SDS011;39658;51.090;-1.786;2023-04-30T03:47:04;51.80;;;18.65;;
53261;SDS011;39658;51.090;-1.786;2023-04-30T03:49:30;58.83;;;20.73;;
53261;SDS011;39658;51.090;-1.786;2023-04-30T03:51:57;51.38;;;19.15;;
53261;SDS011;39658;51.090;-1.786;2023-04-30T03:54:25;59.63;;;20.13;;
53261;SDS011;39658;51.090;-1.786;2023-04-30T03:56:51;59.05;;;20.08;;
53261;SDS011;39658;51.090;-1.786;2023-04-30T03:59:20;59.58;;;20.27;;
53261;SDS011;39658;51.090;-1.786;2023-04-30T04:01:46;56.00;;;19.85;;
53261;SDS011;39658;51.090;-1.786;2023-04-30T04:04:13;59.90;;;20.52;;
53261;SDS011;39658;51.090;-1.786;2023-04-30T04:06:40;54.40;;;18.23;;
53261;SDS011;39658;51.090;-1.786;2023-04-30T04:09:07;50.17;;;19.10;;
53261;SDS011;39658;51.090;-1.786;2023-04-30T04:11:34;58.40;;;20.73;;
53261;SDS011;39658;51.090;-1.786;2023-04-30T04:14:00;60.13;;;20.35;;
53261;SDS011;39658;51.090;-1.786;2023-04-30T04:16:29;53.88;;;19.23;;
53261;SDS011;39658;51.090;-1.786;2023-04-30T04:18:55;53.38;;;19.23;;
53261;SDS011;39658;51.090;-1.786;2023-04-30T04:21:22;50.70;;;19.25;;
53261;SDS011;39658;51.090;-1.786;2023-04-30T04:23:49;52.55;;;19.40;;
53261;SDS011;39658;51.090;-1.786;2023-04-30T04:26:16;55.78;;;18.50;;
53261;SDS011;39658;51.090;-1.786;2023-04-30T04:28:43;57.17;;;20.52;;
53261;SDS011;39658;51.090;-1.786;2023-04-30T04:31:11;53.42;;;21.17;;
53261;SDS011;39658;51.090;-1.786;2023-04-30T04:33:39;71.60;;;21.25;;
53261;SDS011;39658;51.090;-1.786;2023-04-30T04:36:06;56.88;;;19.85;;
53261;SDS011;39658;51.090;-1.786;2023-04-30T04:38:33;64.47;;;19.95;;
53261;SDS011;39658;51.090;-1.786;2023-04-30T04:41:00;50.83;;;19.60;;
53261;SDS011;39658;51.090;-1.786;2023-04-30T04:43:27;63.67;;;20.63;;
53261;SDS011;39658;51.090;-1.786;2023-04-30T04:45:53;56.22;;;19.70;;
53261;SDS011;39658;51.090;-1.786;2023-04-30T04:48:20;61.85;;;21.77;;
53261;SDS011;39658;51.090;-1.786;2023-04-30T04:50:48;64.63;;;21.88;;
53261;SDS011;39658;51.090;-1.786;2023-04-30T04:53:15;59.55;;;20.08;;
53261;SDS011;39658;51.090;-1.786;2023-04-30T04:55:42;57.13;;;20.25;;
53261;SDS011;39658;51.090;-1.786;2023-04-30T04:58:09;57.00;;;20.05;;
53261;SDS011;39658;51.090;-1.786;2023-04-30T05:00:35;58.72;;;19.77;;
53261;SDS011;39658;51.090;-1.786;2023-04-30T05:03:03;67.13;;;21.23;;
53261;SDS011;39658;51.090;-1.786;2023-04-30T05:05:30;66.60;;;23.08;;
53261;SDS011;39658;51.090;-1.786;2023-04-30T05:07:58;71.28;;;24.05;;
53261;SDS011;39658;51.090;-1.786;2023-04-30T05:10:25;67.07;;;22.30;;
53261;SDS011;39658;51.090;-1.786;2023-04-30T05:12:52;69.20;;;23.10;;
53261;SDS011;39658;51.090;-1.786;2023-04-30T05:15:19;70.63;;;25.50;;
53261;SDS011;39658;51.090;-1.786;2023-04-30T05:17:45;70.03;;;24.15;;
53261;SDS011;39658;51.090;-1.786;2023-04-30T05:20:12;65.40;;;23.33;;
53261;SDS011;39658;51.090;-1.786;2023-04-30T05:22:39;62.88;;;23.00;;
53261;SDS011;39658;51.090;-1.786;2023-04-30T05:25:08;66.93;;;24.95;;
53261;SDS011;39658;51.090;-1.786;2023-04-30T05:27:35;80.45;;;26.23;;
53261;SDS011;39658;51.090;-1.786;2023-04-30T05:30:02;72.53;;;27.80;;
53261;SDS011;39658;51.090;-1.786;2023-04-30T05:32:29;82.57;;;27.13;;
53261;SDS011;39658;51.090;-1.786;2023-04-30T05:34:56;78.35;;;24.23;;
53261;SDS011;39658;51.090;-1.786;2023-04-30T05:37:22;82.90;;;29.50;;
53261;SDS011;39658;51.090;-1.786;2023-04-30T05:39:49;97.10;;;29.73;;
53261;SDS011;39658;51.090;-1.786;2023-04-30T05:42:19;83.25;;;30.27;;
53261;SDS011;39658;51.090;-1.786;2023-04-30T05:44:46;96.97;;;31.77;;
53261;SDS011;39658;51.090;-1.786;2023-04-30T05:47:14;94.53;;;30.15;;
53261;SDS011;39658;51.090;-1.786;2023-04-30T05:49:40;89.47;;;29.83;;
53261;SDS011;39658;51.090;-1.786;2023-04-30T05:52:07;92.63;;;28.75;;
53261;SDS011;39658;51.090;-1.786;2023-04-30T05:54:34;98.97;;;31.48;;
53261;SDS011;39658;51.090;-1.786;2023-04-30T05:57:01;87.13;;;30.50;;
53261;SDS011;39658;51.090;-1.786;2023-04-30T05:59:29;95.97;;;31.92;;
53261;SDS011;39658;51.090;-1.786;2023-04-30T06:01:56;90.32;;;28.42;;
53261;SDS011;39658;51.090;-1.786;2023-04-30T06:04:23;94.50;;;29.35;;
53261;SDS011;39658;51.090;-1.786;2023-04-30T06:06:50;81.45;;;28.23;;
53261;SDS011;39658;51.090;-1.786;2023-04-30T06:09:17;84.97;;;27.00;;
53261;SDS011;39658;51.090;-1.786;2023-04-30T06:11:43;90.97;;;27.02;;
53261;SDS011;39658;51.090;-1.786;2023-04-30T06:14:14;80.22;;;27.98;;
53261;SDS011;39658;51.090;-1.786;2023-04-30T06:16:42;69.55;;;24.85;;
53261;SDS011;39658;51.090;-1.786;2023-04-30T06:19:09;71.90;;;26.00;;
53261;SDS011;39658;51.090;-1.786;2023-04-30T06:21:36;82.13;;;27.63;;
53261;SDS011;39658;51.090;-1.786;2023-04-30T06:24:03;77.55;;;26.67;;
53261;SDS011;39658;51.090;-1.786;2023-04-30T06:26:30;72.40;;;25.60;;
53261;SDS011;39658;51.090;-1.786;2023-04-30T06:28:57;70.20;;;25.45;;
53261;SDS011;39658;51.090;-1.786;2023-04-30T06:31:24;66.78;;;25.92;;
53261;SDS011;39658;51.090;-1.786;2023-04-30T06:33:52;74.90;;;26.55;;
53261;SDS011;39658;51.090;-1.786;2023-04-30T06:36:19;70.93;;;25.83;;
53261;SDS011;39658;51.090;-1.786;2023-04-30T06:38:46;71.53;;;26.20;;
53261;SDS011;39658;51.090;-1.786;2023-04-30T06:41:13;63.85;;;23.17;;
53261;SDS011;39658;51.090;-1.786;2023-04-30T06:43:40;59.58;;;22.00;;
53261;SDS011;39658;51.090;-1.786;2023-04-30T06:46:07;67.75;;;23.20;;
53261;SDS011;39658;51.090;-1.786;2023-04-30T06:48:34;61.33;;;23.98;;
53261;SDS011;39658;51.090;-1.786;2023-04-30T06:51:02;64.97;;;25.52;;
53261;SDS011;39658;51.090;-1.786;2023-04-30T06:53:29;73.63;;;24.52;;
53261;SDS011;39658;51.090;-1.786;2023-04-30T06:55:56;63.70;;;24.30;;
53261;SDS011;39658;51.090;-1.786;2023-04-30T06:58:23;61.65;;;23.38;;
53261;SDS011;39658;51.090;-1.786;2023-04-30T07:00:49;65.13;;;24.27;;
53261;SDS011;39658;51.090;-1.786;2023-04-30T07:03:16;55.05;;;23.05;;
53261;SDS011;39658;51.090;-1.786;2023-04-30T07:05:43;67.15;;;24.48;;
53261;SDS011;39658;51.090;-1.786;2023-04-30T07:08:11;58.30;;;23.60;;
53261;SDS011;39658;51.090;-1.786;2023-04-30T07:10:39;58.08;;;23.23;;
53261;SDS011;39658;51.090;-1.786;2023-04-30T07:13:05;53.40;;;20.85;;
53261;SDS011;39658;51.090;-1.786;2023-04-30T07:15:32;51.17;;;20.67;;
53261;SDS011;39658;51.090;-1.786;2023-04-30T07:17:59;46.72;;;19.92;;
53261;SDS011;39658;51.090;-1.786;2023-04-30T07:20:28;58.33;;;23.17;;
53261;SDS011;39658;51.090;-1.786;2023-04-30T07:22:55;52.95;;;24.45;;
53261;SDS011;39658;51.090;-1.786;2023-04-30T07:25:23;56.63;;;24.00;;
53261;SDS011;39658;51.090;-1.786;2023-04-30T07:27:51;51.47;;;22.58;;
53261;SDS011;39658;51.090;-1.786;2023-04-30T07:30:18;53.80;;;21.95;;
53261;SDS011;39658;51.090;-1.786;2023-04-30T07:32:45;50.42;;;21.85;;
53261;SDS011;39658;51.090;-1.786;2023-04-30T07:35:12;51.60;;;22.05;;
53261;SDS011;39658;51.090;-1.786;2023-04-30T07:37:40;47.58;;;20.98;;
53261;SDS011;39658;51.090;-1.786;2023-04-30T07:40:08;48.63;;;21.92;;
53261;SDS011;39658;51.090;-1.786;2023-04-30T07:42:39;47.72;;;22.33;;
53261;SDS011;39658;51.090;-1.786;2023-04-30T07:45:06;50.03;;;21.88;;
53261;SDS011;39658;51.090;-1.786;2023-04-30T07:47:34;46.15;;;22.50;;
53261;SDS011;39658;51.090;-1.786;2023-04-30T07:50:00;49.60;;;22.42;;
53261;SDS011;39658;51.090;-1.786;2023-04-30T07:52:27;46.92;;;20.77;;
53261;SDS011;39658;51.090;-1.786;2023-04-30T07:54:54;49.15;;;21.95;;
53261;SDS011;39658;51.090;-1.786;2023-04-30T07:57:21;41.15;;;21.13;;
53261;SDS011;39658;51.090;-1.786;2023-04-30T07:59:52;52.35;;;22.27;;
53261;SDS011;39658;51.090;-1.786;2023-04-30T08:02:19;44.95;;;21.00;;
53261;SDS011;39658;51.090;-1.786;2023-04-30T08:04:46;49.63;;;19.48;;
53261;SDS011;39658;51.090;-1.786;2023-04-30T08:07:12;44.50;;;19.92;;
53261;SDS011;39658;51.090;-1.786;2023-04-30T08:09:40;47.35;;;20.55;;
53261;SDS011;39658;51.090;-1.786;2023-04-30T08:12:07;45.13;;;19.13;;
53261;SDS011;39658;51.090;-1.786;2023-04-30T08:14:34;43.03;;;20.63;;
53261;SDS011;39658;51.090;-1.786;2023-04-30T08:17:02;48.85;;;21.20;;
53261;SDS011;39658;51.090;-1.786;2023-04-30T08:19:29;40.92;;;20.27;;
53261;SDS011;39658;51.090;-1.786;2023-04-30T08:21:56;45.28;;;20.50;;
53261;SDS011;39658;51.090;-1.786;2023-04-30T08:24:24;44.67;;;19.48;;
53261;SDS011;39658;51.090;-1.786;2023-04-30T08:26:51;45.50;;;21.23;;
53261;SDS011;39658;51.090;-1.786;2023-04-30T08:29:17;42.08;;;18.80;;
53261;SDS011;39658;51.090;-1.786;2023-04-30T08:31:44;39.83;;;19.83;;
53261;SDS011;39658;51.090;-1.786;2023-04-30T08:34:12;41.63;;;17.67;;
53261;SDS011;39658;51.090;-1.786;2023-04-30T08:36:39;44.72;;;20.58;;
53261;SDS011;39658;51.090;-1.786;2023-04-30T08:39:06;38.42;;;20.02;;
53261;SDS011;39658;51.090;-1.786;2023-04-30T08:41:32;43.22;;;21.30;;
53261;SDS011;39658;51.090;-1.786;2023-04-30T08:44:01;40.33;;;18.95;;
53261;SDS011;39658;51.090;-1.786;2023-04-30T08:46:28;38.95;;;18.80;;
53261;SDS011;39658;51.090;-1.786;2023-04-30T08:48:57;34.55;;;18.85;;
53261;SDS011;39658;51.090;-1.786;2023-04-30T08:51:25;39.03;;;19.02;;
53261;SDS011;39658;51.090;-1.786;2023-04-30T08:53:52;34.88;;;18.20;;
53261;SDS011;39658;51.090;-1.786;2023-04-30T08:56:20;40.53;;;19.38;;
53261;SDS011;39658;51.090;-1.786;2023-04-30T08:58:47;40.55;;;17.83;;
53261;SDS011;39658;51.090;-1.786;2023-04-30T09:01:14;38.30;;;17.27;;
53261;SDS011;39658;51.090;-1.786;2023-04-30T09:03:41;39.58;;;18.02;;
53261;SDS011;39658;51.090;-1.786;2023-04-30T09:06:08;39.33;;;18.63;;
53261;SDS011;39658;51.090;-1.786;2023-04-30T09:08:43;33.63;;;15.68;;
53261;SDS011;39658;51.090;-1.786;2023-04-30T09:11:23;37.97;;;17.23;;
53261;SDS011;39658;51.090;-1.786;2023-04-30T09:13:51;37.15;;;16.65;;
53261;SDS011;39658;51.090;-1.786;2023-04-30T09:16:19;35.67;;;17.25;;
53261;SDS011;39658;51.090;-1.786;2023-04-30T09:18:47;33.40;;;16.13;;
53261;SDS011;39658;51.090;-1.786;2023-04-30T09:21:14;30.75;;;15.77;;
53261;SDS011;39658;51.090;-1.786;2023-04-30T09:23:55;26.38;;;13.65;;
53261;SDS011;39658;51.090;-1.786;2023-04-30T09:26:26;25.35;;;13.23;;
53261;SDS011;39658;51.090;-1.786;2023-04-30T09:28:56;22.38;;;12.52;;
53261;SDS011;39658;51.090;-1.786;2023-04-30T09:31:24;20.20;;;10.45;;
53261;SDS011;39658;51.090;-1.786;2023-04-30T09:33:52;23.05;;;9.93;;
53261;SDS011;39658;51.090;-1.786;2023-04-30T09:36:19;20.23;;;11.05;;
53261;SDS011;39658;51.090;-1.786;2023-04-30T09:38:45;22.00;;;10.23;;
53261;SDS011;39658;51.090;-1.786;2023-04-30T09:41:23;21.92;;;11.07;;
53261;SDS011;39658;51.090;-1.786;2023-04-30T09:43:51;20.75;;;9.75;;
53261;SDS011;39658;51.090;-1.786;2023-04-30T09:46:19;19.95;;;10.55;;
53261;SDS011;39658;51.090;-1.786;2023-04-30T09:48:52;22.38;;;9.90;;
53261;SDS011;39658;51.090;-1.786;2023-04-30T09:51:22;20.08;;;9.88;;
53261;SDS011;39658;51.090;-1.786;2023-04-30T09:53:49;21.90;;;10.55;;
53261;SDS011;39658;51.090;-1.786;2023-04-30T09:56:19;25.73;;;9.85;;
53261;SDS011;39658;51.090;-1.786;2023-04-30T09:58:50;19.65;;;10.30;;
53261;SDS011;39658;51.090;-1.786;2023-04-30T10:01:19;21.10;;;9.05;;
53261;SDS011;39658;51.090;-1.786;2023-04-30T10:03:47;17.50;;;9.35;;
53261;SDS011;39658;51.090;-1.786;2023-04-30T10:06:14;18.38;;;9.10;;
53261;SDS011;39658;51.090;-1.786;2023-04-30T10:08:43;17.55;;;9.50;;
53261;SDS011;39658;51.090;-1.786;2023-04-30T10:11:14;16.92;;;7.90;;
53261;SDS011;39658;51.090;-1.786;2023-04-30T10:13:44;18.50;;;8.95;;
53261;SDS011;39658;51.090;-1.786;2023-04-30T10:16:17;17.23;;;9.40;;
53261;SDS011;39658;51.090;-1.786;2023-04-30T10:18:52;16.65;;;8.60;;
53261;SDS011;39658;51.090;-1.786;2023-04-30T10:21:21;16.83;;;7.72;;
53261;SDS011;39658;51.090;-1.786;2023-04-30T10:23:50;17.23;;;7.78;;
53261;SDS011;39658;51.090;-1.786;2023-04-30T10:26:19;14.00;;;7.28;;
53261;SDS011;39658;51.090;-1.786;2023-04-30T10:28:49;17.83;;;7.60;;
53261;SDS011;39658;51.090;-1.786;2023-04-30T10:31:19;14.60;;;7.70;;
53261;SDS011;39658;51.090;-1.786;2023-04-30T10:33:50;15.32;;;7.80;;
53261;SDS011;39658;51.090;-1.786;2023-04-30T10:36:24;14.35;;;7.38;;
53261;SDS011;39658;51.090;-1.786;2023-04-30T10:38:56;14.02;;;6.88;;
53261;SDS011;39658;51.090;-1.786;2023-04-30T10:41:25;12.93;;;6.05;;
53261;SDS011;39658;51.090;-1.786;2023-04-30T10:43:56;15.00;;;7.00;;
53261;SDS011;39658;51.090;-1.786;2023-04-30T10:46:25;13.13;;;6.13;;
53261;SDS011;39658;51.090;-1.786;2023-04-30T10:48:52;12.32;;;7.13;;
53261;SDS011;39658;51.090;-1.786;2023-04-30T10:51:20;16.05;;;7.22;;
53261;SDS011;39658;51.090;-1.786;2023-04-30T10:53:48;17.05;;;8.70;;
53261;SDS011;39658;51.090;-1.786;2023-04-30T10:56:29;16.23;;;7.85;;
53261;SDS011;39658;51.090;-1.786;2023-04-30T10:59:00;18.25;;;8.80;;
53261;SDS011;39658;51.090;-1.786;2023-04-30T11:01:29;17.35;;;8.25;;
53261;SDS011;39658;51.090;-1.786;2023-04-30T11:04:03;15.55;;;7.82;;
53261;SDS011;39658;51.090;-1.786;2023-04-30T11:09:23;16.80;;;8.73;;
53261;SDS011;39658;51.090;-1.786;2023-04-30T11:12:02;15.15;;;8.38;;
53261;SDS011;39658;51.090;-1.786;2023-04-30T11:14:30;17.38;;;8.85;;
53261;SDS011;39658;51.090;-1.786;2023-04-30T11:16:59;14.93;;;7.95;;
53261;SDS011;39658;51.090;-1.786;2023-04-30T11:19:26;14.88;;;7.20;;
53261;SDS011;39658;51.090;-1.786;2023-04-30T11:24:53;16.63;;;8.15;;
53261;SDS011;39658;51.090;-1.786;2023-04-30T11:27:30;19.77;;;8.93;;
53261;SDS011;39658;51.090;-1.786;2023-04-30T11:29:58;16.65;;;9.48;;
53261;SDS011;39658;51.090;-1.786;2023-04-30T11:32:31;17.58;;;8.85;;
53261;SDS011;39658;51.090;-1.786;2023-04-30T11:35:00;21.65;;;9.93;;
53261;SDS011;39658;51.090;-1.786;2023-04-30T11:37:29;17.42;;;9.32;;
53261;SDS011;39658;51.090;-1.786;2023-04-30T11:39:59;18.30;;;9.80;;
53261;SDS011;39658;51.090;-1.786;2023-04-30T11:42:27;18.73;;;9.57;;
53261;SDS011;39658;51.090;-1.786;2023-04-30T11:45:01;19.50;;;9.75;;
53261;SDS011;39658;51.090;-1.786;2023-04-30T11:47:38;23.08;;;11.38;;
53261;SDS011;39658;51.090;-1.786;2023-04-30T11:50:07;19.05;;;10.10;;
53261;SDS011;39658;51.090;-1.786;2023-04-30T11:52:35;19.80;;;9.65;;
53261;SDS011;39658;51.090;-1.786;2023-04-30T11:55:06;20.63;;;10.52;;
53261;SDS011;39658;51.090;-1.786;2023-04-30T11:57:41;20.10;;;11.70;;
53261;SDS011;39658;51.090;-1.786;2023-04-30T12:00:11;19.85;;;10.02;;
53261;SDS011;39658;51.090;-1.786;2023-04-30T12:02:41;23.17;;;12.02;;
53261;SDS011;39658;51.090;-1.786;2023-04-30T12:05:13;20.25;;;11.07;;
53261;SDS011;39658;51.090;-1.786;2023-04-30T12:07:47;19.65;;;9.73;;
53261;SDS011;39658;51.090;-1.786;2023-04-30T12:10:16;21.35;;;11.45;;
53261;SDS011;39658;51.090;-1.786;2023-04-30T12:12:45;18.35;;;10.10;;
53261;SDS011;39658;51.090;-1.786;2023-04-30T12:15:13;20.75;;;9.45;;
53261;SDS011;39658;51.090;-1.786;2023-04-30T12:17:42;18.23;;;10.05;;
53261;SDS011;39658;51.090;-1.786;2023-04-30T12:20:10;20.10;;;12.30;;
53261;SDS011;39658;51.090;-1.786;2023-04-30T12:22:38;17.92;;;9.70;;
53261;SDS011;39658;51.090;-1.786;2023-04-30T12:25:07;18.70;;;9.70;;
53261;SDS011;39658;51.090;-1.786;2023-04-30T12:27:37;16.35;;;8.77;;
53261;SDS011;39658;51.090;-1.786;2023-04-30T12:30:05;18.55;;;9.35;;
53261;SDS011;39658;51.090;-1.786;2023-04-30T12:32:37;20.20;;;9.73;;
53261;SDS011;39658;51.090;-1.786;2023-04-30T12:35:07;17.92;;;9.88;;
53261;SDS011;39658;51.090;-1.786;2023-04-30T12:37:35;16.75;;;8.35;;
53261;SDS011;39658;51.090;-1.786;2023-04-30T12:40:02;18.60;;;9.35;;
53261;SDS011;39658;51.090;-1.786;2023-04-30T12:42:32;16.95;;;8.88;;
53261;SDS011;39658;51.090;-1.786;2023-04-30T12:45:02;17.80;;;9.20;;
53261;SDS011;39658;51.090;-1.786;2023-04-30T12:47:29;17.35;;;8.65;;
53261;SDS011;39658;51.090;-1.786;2023-04-30T12:49:56;17.73;;;8.60;;
53261;SDS011;39658;51.090;-1.786;2023-04-30T12:52:24;17.83;;;9.57;;
53261;SDS011;39658;51.090;-1.786;2023-04-30T12:54:51;17.17;;;8.98;;
53261;SDS011;39658;51.090;-1.786;2023-04-30T12:57:20;16.38;;;10.07;;
53261;SDS011;39658;51.090;-1.786;2023-04-30T12:59:56;15.15;;;8.93;;
53261;SDS011;39658;51.090;-1.786;2023-04-30T13:02:25;17.23;;;9.20;;
53261;SDS011;39658;51.090;-1.786;2023-04-30T13:04:53;18.00;;;9.85;;
53261;SDS011;39658;51.090;-1.786;2023-04-30T13:07:21;18.02;;;9.48;;
53261;SDS011;39658;51.090;-1.786;2023-04-30T13:09:49;17.40;;;8.80;;
53261;SDS011;39658;51.090;-1.786;2023-04-30T13:12:16;13.63;;;8.48;;
53261;SDS011;39658;51.090;-1.786;2023-04-30T13:14:43;14.70;;;7.53;;
53261;SDS011;39658;51.090;-1.786;2023-04-30T13:17:10;17.23;;;7.70;;
53261;SDS011;39658;51.090;-1.786;2023-04-30T13:19:38;15.52;;;7.28;;
53261;SDS011;39658;51.090;-1.786;2023-04-30T13:22:04;15.43;;;7.47;;
53261;SDS011;39658;51.090;-1.786;2023-04-30T13:24:31;13.95;;;7.72;;
53261;SDS011;39658;51.090;-1.786;2023-04-30T13:26:59;13.88;;;7.35;;
53261;SDS011;39658;51.090;-1.786;2023-04-30T13:29:26;16.98;;;7.07;;
53261;SDS011;39658;51.090;-1.786;2023-04-30T13:31:53;15.35;;;6.93;;
53261;SDS011;39658;51.090;-1.786;2023-04-30T13:34:20;12.98;;;6.45;;
53261;SDS011;39658;51.090;-1.786;2023-04-30T13:36:47;13.35;;;7.13;;
53261;SDS011;39658;51.090;-1.786;2023-04-30T13:39:14;11.85;;;6.20;;
53261;SDS011;39658;51.090;-1.786;2023-04-30T13:41:40;12.77;;;7.63;;
53261;SDS011;39658;51.090;-1.786;2023-04-30T13:44:09;15.10;;;7.35;;
53261;SDS011;39658;51.090;-1.786;2023-04-30T13:46:36;16.17;;;8.82;;
53261;SDS011;39658;51.090;-1.786;2023-04-30T13:49:03;13.40;;;7.63;;
53261;SDS011;39658;51.090;-1.786;2023-04-30T13:51:30;16.20;;;7.57;;
53261;SDS011;39658;51.090;-1.786;2023-04-30T13:53:57;15.90;;;7.55;;
53261;SDS011;39658;51.090;-1.786;2023-04-30T13:56:23;14.80;;;7.55;;
53261;SDS011;39658;51.090;-1.786;2023-04-30T13:58:50;15.95;;;9.40;;
53261;SDS011;39658;51.090;-1.786;2023-04-30T14:01:19;14.85;;;8.25;;
53261;SDS011;39658;51.090;-1.786;2023-04-30T14:03:45;15.15;;;8.43;;
53261;SDS011;39658;51.090;-1.786;2023-04-30T14:06:12;14.85;;;7.68;;
53261;SDS011;39658;51.090;-1.786;2023-04-30T14:08:39;12.50;;;6.63;;
53261;SDS011;39658;51.090;-1.786;2023-04-30T14:11:06;11.23;;;6.15;;
53261;SDS011;39658;51.090;-1.786;2023-04-30T14:13:33;13.25;;;6.00;;
53261;SDS011;39658;51.090;-1.786;2023-04-30T14:16:00;12.43;;;5.95;;
53261;SDS011;39658;51.090;-1.786;2023-04-30T14:18:28;11.07;;;5.50;;
53261;SDS011;39658;51.090;-1.786;2023-04-30T14:20:54;12.98;;;7.05;;
53261;SDS011;39658;51.090;-1.786;2023-04-30T14:23:21;13.50;;;6.70;;
53261;SDS011;39658;51.090;-1.786;2023-04-30T14:25:48;14.23;;;7.60;;